sensor_id;sensor_type;location;lat;lon;timestamp;P1;durP1;ratioP1;P2;durP2;ratioP2
24435;SDS011;12616;52.470;13.436;2023-02-01T00:01:07;7.40;;;3.10;;
24435;SDS011;12616;52.470;13.436;2023-02-01T00:03:34;17.58;;;4.20;;
24435;SDS011;12616;52.470;13.436;2023-02-01T00:06:04;18.05;;;5.13;;
24435;SDS011;12616;52.470;13.436;2023-02-01T00:08:30;10.65;;;3.60;;
24435;SDS011;12616;52.470;13.436;2023-02-01T00:10:59;19.63;;;4.00;;
24435;SDS011;12616;52.470;13.436;2023-02-01T00:13:29;21.23;;;6.00;;
24435;SDS011;12616;52.470;13.436;2023-02-01T00:16:02;16.02;;;4.00;;
24435;SDS011;12616;52.470;13.436;2023-02-01T00:18:29;13.32;;;3.90;;
24435;SDS011;12616;52.470;13.436;2023-02-01T00:20:56;22.42;;;4.25;;
24435;SDS011;12616;52.470;13.436;2023-02-01T00:23:23;13.40;;;3.65;;
24435;SDS011;12616;52.470;13.436;2023-02-01T00:25:50;9.40;;;3.15;;
24435;SDS011;12616;52.470;13.436;2023-02-01T00:28:17;13.65;;;3.92;;
24435;SDS011;12616;52.470;13.436;2023-02-01T00:30:45;8.10;;;3.50;;
24435;SDS011;12616;52.470;13.436;2023-02-01T00:33:12;13.48;;;4.05;;
24435;SDS011;12616;52.470;13.436;2023-02-01T00:35:39;15.05;;;4.00;;
24435;SDS011;12616;52.470;13.436;2023-02-01T00:38:06;14.73;;;3.70;;
24435;SDS011;12616;52.470;13.436;2023-02-01T00:40:32;10.05;;;3.70;;
24435;SDS011;12616;52.470;13.436;2023-02-01T00:43:00;13.27;;;3.33;;
24435;SDS011;12616;52.470;13.436;2023-02-01T00:45:27;12.30;;;3.13;;
24435;SDS011;12616;52.470;13.436;2023-02-01T00:47:55;14.13;;;3.65;;
24435;SDS011;12616;52.470;13.436;2023-02-01T00:50:22;11.43;;;3.88;;
24435;SDS011;12616;52.470;13.436;2023-02-01T00:52:49;10.07;;;2.85;;
24435;SDS011;12616;52.470;13.436;2023-02-01T00:55:15;9.85;;;3.15;;
24435;SDS011;12616;52.470;13.436;2023-02-01T00:57:42;9.60;;;3.15;;
24435;SDS011;12616;52.470;13.436;2023-02-01T01:00:10;9.70;;;2.83;;
24435;SDS011;12616;52.470;13.436;2023-02-01T01:02:37;12.32;;;2.67;;
24435;SDS011;12616;52.470;13.436;2023-02-01T01:05:06;16.40;;;4.10;;
24435;SDS011;12616;52.470;13.436;2023-02-01T01:07:33;9.60;;;3.35;;
24435;SDS011;12616;52.470;13.436;2023-02-01T01:10:00;13.80;;;2.92;;
24435;SDS011;12616;52.470;13.436;2023-02-01T01:12:27;11.00;;;3.50;;
24435;SDS011;12616;52.470;13.436;2023-02-01T01:14:53;21.15;;;3.55;;
24435;SDS011;12616;52.470;13.436;2023-02-01T01:17:20;8.70;;;2.83;;
24435;SDS011;12616;52.470;13.436;2023-02-01T01:19:47;8.40;;;2.50;;
24435;SDS011;12616;52.470;13.436;2023-02-01T01:22:16;8.35;;;2.80;;
24435;SDS011;12616;52.470;13.436;2023-02-01T01:24:43;10.48;;;3.15;;
24435;SDS011;12616;52.470;13.436;2023-02-01T01:27:09;11.82;;;3.28;;
24435;SDS011;12616;52.470;13.436;2023-02-01T01:29:36;15.15;;;2.72;;
24435;SDS011;12616;52.470;13.436;2023-02-01T01:32:03;6.88;;;2.78;;
24435;SDS011;12616;52.470;13.436;2023-02-01T01:34:30;5.97;;;2.30;;
24435;SDS011;12616;52.470;13.436;2023-02-01T01:36:57;16.17;;;3.58;;
24435;SDS011;12616;52.470;13.436;2023-02-01T01:39:25;7.90;;;4.57;;
24435;SDS011;12616;52.470;13.436;2023-02-01T01:41:52;14.95;;;3.75;;
24435;SDS011;12616;52.470;13.436;2023-02-01T01:47:25;15.18;;;3.10;;
24435;SDS011;12616;52.470;13.436;2023-02-01T01:49:54;10.88;;;3.70;;
24435;SDS011;12616;52.470;13.436;2023-02-01T01:52:21;12.90;;;4.13;;
24435;SDS011;12616;52.470;13.436;2023-02-01T01:54:51;10.63;;;2.55;;
24435;SDS011;12616;52.470;13.436;2023-02-01T01:57:20;22.60;;;4.75;;
24435;SDS011;12616;52.470;13.436;2023-02-01T01:59:53;19.63;;;4.55;;
24435;SDS011;12616;52.470;13.436;2023-02-01T02:02:23;8.70;;;2.80;;
24435;SDS011;12616;52.470;13.436;2023-02-01T02:04:50;12.32;;;3.38;;
24435;SDS011;12616;52.470;13.436;2023-02-01T02:07:19;17.50;;;3.35;;
24435;SDS011;12616;52.470;13.436;2023-02-01T02:09:50;10.40;;;3.03;;
24435;SDS011;12616;52.470;13.436;2023-02-01T02:12:17;13.73;;;3.35;;
24435;SDS011;12616;52.470;13.436;2023-02-01T02:14:44;9.80;;;3.63;;
24435;SDS011;12616;52.470;13.436;2023-02-01T02:29:06;6.75;;;2.67;;
24435;SDS011;12616;52.470;13.436;2023-02-01T02:34:52;12.70;;;3.40;;
24435;SDS011;12616;52.470;13.436;2023-02-01T02:37:24;18.95;;;3.42;;
24435;SDS011;12616;52.470;13.436;2023-02-01T02:39:59;6.90;;;2.22;;
24435;SDS011;12616;52.470;13.436;2023-02-01T02:42:34;8.90;;;3.10;;
24435;SDS011;12616;52.470;13.436;2023-02-01T02:45:39;12.18;;;3.08;;
24435;SDS011;12616;52.470;13.436;2023-02-01T02:48:27;12.20;;;3.38;;
24435;SDS011;12616;52.470;13.436;2023-02-01T02:50:59;11.73;;;3.85;;
24435;SDS011;12616;52.470;13.436;2023-02-01T02:53:48;13.57;;;3.45;;
24435;SDS011;12616;52.470;13.436;2023-02-01T02:56:36;17.10;;;3.55;;
24435;SDS011;12616;52.470;13.436;2023-02-01T02:59:22;8.25;;;3.38;;
24435;SDS011;12616;52.470;13.436;2023-02-01T03:02:10;11.80;;;3.75;;
24435;SDS011;12616;52.470;13.436;2023-02-01T03:04:55;8.85;;;2.80;;
24435;SDS011;12616;52.470;13.436;2023-02-01T03:10:24;16.42;;;4.18;;
24435;SDS011;12616;52.470;13.436;2023-02-01T03:13:00;15.18;;;3.33;;
24435;SDS011;12616;52.470;13.436;2023-02-01T03:15:30;11.48;;;2.70;;
24435;SDS011;12616;52.470;13.436;2023-02-01T03:18:03;7.68;;;3.08;;
24435;SDS011;12616;52.470;13.436;2023-02-01T03:20:36;16.95;;;3.60;;
24435;SDS011;12616;52.470;13.436;2023-02-01T03:23:08;19.15;;;3.45;;
24435;SDS011;12616;52.470;13.436;2023-02-01T03:25:37;14.50;;;4.90;;
24435;SDS011;12616;52.470;13.436;2023-02-01T03:28:04;16.00;;;3.45;;
24435;SDS011;12616;52.470;13.436;2023-02-01T03:30:35;11.70;;;3.30;;
24435;SDS011;12616;52.470;13.436;2023-02-01T03:33:04;17.70;;;4.47;;
24435;SDS011;12616;52.470;13.436;2023-02-01T03:35:40;11.60;;;4.43;;
24435;SDS011;12616;52.470;13.436;2023-02-01T03:38:16;16.33;;;4.25;;
24435;SDS011;12616;52.470;13.436;2023-02-01T03:40:48;13.93;;;3.20;;
24435;SDS011;12616;52.470;13.436;2023-02-01T03:43:19;12.18;;;3.55;;
24435;SDS011;12616;52.470;13.436;2023-02-01T03:45:49;15.20;;;5.57;;
24435;SDS011;12616;52.470;13.436;2023-02-01T03:48:19;14.82;;;5.35;;
24435;SDS011;12616;52.470;13.436;2023-02-01T03:50:52;14.88;;;3.17;;
24435;SDS011;12616;52.470;13.436;2023-02-01T03:53:24;14.48;;;4.43;;
24435;SDS011;12616;52.470;13.436;2023-02-01T03:55:52;12.18;;;3.42;;
24435;SDS011;12616;52.470;13.436;2023-02-01T03:58:21;13.93;;;4.50;;
24435;SDS011;12616;52.470;13.436;2023-02-01T04:00:50;8.25;;;3.88;;
24435;SDS011;12616;52.470;13.436;2023-02-01T04:03:20;10.52;;;3.22;;
24435;SDS011;12616;52.470;13.436;2023-02-01T04:05:47;15.75;;;3.03;;
24435;SDS011;12616;52.470;13.436;2023-02-01T04:08:14;13.85;;;3.80;;
24435;SDS011;12616;52.470;13.436;2023-02-01T04:10:42;12.63;;;3.35;;
24435;SDS011;12616;52.470;13.436;2023-02-01T04:13:09;19.80;;;5.35;;
24435;SDS011;12616;52.470;13.436;2023-02-01T04:15:36;19.77;;;4.32;;
24435;SDS011;12616;52.470;13.436;2023-02-01T04:18:03;11.57;;;3.42;;
24435;SDS011;12616;52.470;13.436;2023-02-01T04:20:30;15.02;;;3.55;;
24435;SDS011;12616;52.470;13.436;2023-02-01T04:22:57;11.88;;;3.95;;
24435;SDS011;12616;52.470;13.436;2023-02-01T04:25:24;15.43;;;3.58;;
24435;SDS011;12616;52.470;13.436;2023-02-01T04:27:52;19.10;;;4.13;;
24435;SDS011;12616;52.470;13.436;2023-02-01T04:30:19;14.85;;;3.65;;
24435;SDS011;12616;52.470;13.436;2023-02-01T04:32:46;16.90;;;4.20;;
24435;SDS011;12616;52.470;13.436;2023-02-01T04:35:13;12.73;;;3.97;;
24435;SDS011;12616;52.470;13.436;2023-02-01T04:37:40;21.88;;;4.55;;
24435;SDS011;12616;52.470;13.436;2023-02-01T04:40:07;13.25;;;3.55;;
24435;SDS011;12616;52.470;13.436;2023-02-01T04:42:35;13.50;;;3.80;;
24435;SDS011;12616;52.470;13.436;2023-02-01T04:45:03;12.02;;;3.42;;
24435;SDS011;12616;52.470;13.436;2023-02-01T04:47:31;20.60;;;4.25;;
24435;SDS011;12616;52.470;13.436;2023-02-01T04:49:58;13.43;;;4.05;;
24435;SDS011;12616;52.470;13.436;2023-02-01T04:52:25;11.77;;;4.95;;
24435;SDS011;12616;52.470;13.436;2023-02-01T04:54:52;15.73;;;3.25;;
24435;SDS011;12616;52.470;13.436;2023-02-01T04:57:22;12.40;;;3.83;;
24435;SDS011;12616;52.470;13.436;2023-02-01T04:59:49;14.95;;;4.07;;
24435;SDS011;12616;52.470;13.436;2023-02-01T05:02:17;14.93;;;4.40;;
24435;SDS011;12616;52.470;13.436;2023-02-01T05:04:44;12.95;;;4.28;;
24435;SDS011;12616;52.470;13.436;2023-02-01T05:07:11;11.73;;;4.45;;
24435;SDS011;12616;52.470;13.436;2023-02-01T05:09:37;14.15;;;3.80;;
24435;SDS011;12616;52.470;13.436;2023-02-01T05:12:04;18.67;;;4.00;;
24435;SDS011;12616;52.470;13.436;2023-02-01T05:14:49;12.25;;;3.80;;
24435;SDS011;12616;52.470;13.436;2023-02-01T05:17:17;18.13;;;3.05;;
24435;SDS011;12616;52.470;13.436;2023-02-01T05:19:44;15.77;;;4.20;;
24435;SDS011;12616;52.470;13.436;2023-02-01T05:22:11;11.77;;;4.18;;
24435;SDS011;12616;52.470;13.436;2023-02-01T05:24:38;9.20;;;3.75;;
24435;SDS011;12616;52.470;13.436;2023-02-01T05:27:05;11.57;;;3.40;;
24435;SDS011;12616;52.470;13.436;2023-02-01T05:29:31;11.95;;;3.85;;
24435;SDS011;12616;52.470;13.436;2023-02-01T05:31:58;8.75;;;3.72;;
24435;SDS011;12616;52.470;13.436;2023-02-01T05:34:27;14.57;;;4.07;;
24435;SDS011;12616;52.470;13.436;2023-02-01T05:36:53;20.75;;;4.15;;
24435;SDS011;12616;52.470;13.436;2023-02-01T05:39:20;10.02;;;2.70;;
24435;SDS011;12616;52.470;13.436;2023-02-01T05:41:47;13.82;;;4.70;;
24435;SDS011;12616;52.470;13.436;2023-02-01T05:44:14;15.20;;;3.10;;
24435;SDS011;12616;52.470;13.436;2023-02-01T05:46:41;13.70;;;4.20;;
24435;SDS011;12616;52.470;13.436;2023-02-01T05:49:08;15.77;;;3.97;;
24435;SDS011;12616;52.470;13.436;2023-02-01T05:51:36;17.70;;;4.35;;
24435;SDS011;12616;52.470;13.436;2023-02-01T05:54:03;16.23;;;5.28;;
24435;SDS011;12616;52.470;13.436;2023-02-01T05:56:29;12.68;;;3.50;;
24435;SDS011;12616;52.470;13.436;2023-02-01T05:58:56;10.98;;;3.97;;
24435;SDS011;12616;52.470;13.436;2023-02-01T06:01:23;17.00;;;3.67;;
24435;SDS011;12616;52.470;13.436;2023-02-01T06:03:50;9.23;;;3.85;;
24435;SDS011;12616;52.470;13.436;2023-02-01T06:06:17;20.63;;;4.38;;
24435;SDS011;12616;52.470;13.436;2023-02-01T06:08:45;14.27;;;4.60;;
24435;SDS011;12616;52.470;13.436;2023-02-01T06:11:12;16.05;;;3.70;;
24435;SDS011;12616;52.470;13.436;2023-02-01T06:13:39;11.45;;;4.00;;
24435;SDS011;12616;52.470;13.436;2023-02-01T06:16:06;11.00;;;4.40;;
24435;SDS011;12616;52.470;13.436;2023-02-01T06:18:33;14.88;;;4.03;;
24435;SDS011;12616;52.470;13.436;2023-02-01T06:21:00;8.95;;;3.65;;
24435;SDS011;12616;52.470;13.436;2023-02-01T06:23:27;20.10;;;5.35;;
24435;SDS011;12616;52.470;13.436;2023-02-01T06:25:59;8.82;;;4.20;;
24435;SDS011;12616;52.470;13.436;2023-02-01T06:28:27;16.40;;;4.40;;
24435;SDS011;12616;52.470;13.436;2023-02-01T06:30:54;8.82;;;3.67;;
24435;SDS011;12616;52.470;13.436;2023-02-01T06:33:23;18.77;;;5.43;;
24435;SDS011;12616;52.470;13.436;2023-02-01T06:35:55;11.23;;;3.63;;
24435;SDS011;12616;52.470;13.436;2023-02-01T06:38:23;9.65;;;3.58;;
24435;SDS011;12616;52.470;13.436;2023-02-01T06:40:51;17.10;;;3.97;;
24435;SDS011;12616;52.470;13.436;2023-02-01T06:43:21;10.95;;;3.70;;
24435;SDS011;12616;52.470;13.436;2023-02-01T06:45:47;11.00;;;4.10;;
24435;SDS011;12616;52.470;13.436;2023-02-01T06:48:14;14.68;;;4.93;;
24435;SDS011;12616;52.470;13.436;2023-02-01T06:50:41;10.85;;;3.75;;
24435;SDS011;12616;52.470;13.436;2023-02-01T06:53:08;13.70;;;4.53;;
24435;SDS011;12616;52.470;13.436;2023-02-01T06:55:35;15.70;;;4.20;;
24435;SDS011;12616;52.470;13.436;2023-02-01T06:58:02;12.80;;;4.15;;
24435;SDS011;12616;52.470;13.436;2023-02-01T07:00:30;17.50;;;4.68;;
24435;SDS011;12616;52.470;13.436;2023-02-01T07:02:57;12.35;;;4.57;;
24435;SDS011;12616;52.470;13.436;2023-02-01T07:05:25;9.25;;;4.10;;
24435;SDS011;12616;52.470;13.436;2023-02-01T07:07:52;8.18;;;4.00;;
24435;SDS011;12616;52.470;13.436;2023-02-01T07:10:18;13.20;;;3.95;;
24435;SDS011;12616;52.470;13.436;2023-02-01T07:12:45;12.65;;;4.72;;
24435;SDS011;12616;52.470;13.436;2023-02-01T07:15:12;19.42;;;4.90;;
24435;SDS011;12616;52.470;13.436;2023-02-01T07:17:40;16.60;;;6.20;;
24435;SDS011;12616;52.470;13.436;2023-02-01T07:20:08;23.10;;;7.20;;
24435;SDS011;12616;52.470;13.436;2023-02-01T07:22:35;20.73;;;8.90;;
24435;SDS011;12616;52.470;13.436;2023-02-01T07:25:02;34.30;;;10.73;;
24435;SDS011;12616;52.470;13.436;2023-02-01T07:27:29;25.17;;;9.82;;
24435;SDS011;12616;52.470;13.436;2023-02-01T07:29:56;17.55;;;8.52;;
24435;SDS011;12616;52.470;13.436;2023-02-01T07:32:26;17.65;;;7.03;;
24435;SDS011;12616;52.470;13.436;2023-02-01T07:34:55;15.02;;;5.93;;
24435;SDS011;12616;52.470;13.436;2023-02-01T07:37:22;13.85;;;5.03;;
24435;SDS011;12616;52.470;13.436;2023-02-01T07:39:49;25.40;;;5.80;;
24435;SDS011;12616;52.470;13.436;2023-02-01T07:42:16;12.85;;;4.80;;
24435;SDS011;12616;52.470;13.436;2023-02-01T07:44:43;14.80;;;5.68;;
24435;SDS011;12616;52.470;13.436;2023-02-01T07:47:10;11.63;;;4.75;;
24435;SDS011;12616;52.470;13.436;2023-02-01T07:49:37;14.95;;;5.30;;
24435;SDS011;12616;52.470;13.436;2023-02-01T07:52:05;15.43;;;5.20;;
24435;SDS011;12616;52.470;13.436;2023-02-01T07:54:33;10.57;;;4.63;;
24435;SDS011;12616;52.470;13.436;2023-02-01T07:56:59;14.10;;;4.97;;
24435;SDS011;12616;52.470;13.436;2023-02-01T07:59:27;12.07;;;4.95;;
24435;SDS011;12616;52.470;13.436;2023-02-01T08:01:54;28.38;;;9.43;;
24435;SDS011;12616;52.470;13.436;2023-02-01T08:04:20;27.53;;;13.20;;
24435;SDS011;12616;52.470;13.436;2023-02-01T08:06:47;24.80;;;9.15;;
24435;SDS011;12616;52.470;13.436;2023-02-01T08:09:16;16.67;;;10.07;;
24435;SDS011;12616;52.470;13.436;2023-02-01T08:11:42;28.67;;;11.98;;
24435;SDS011;12616;52.470;13.436;2023-02-01T08:14:09;10.13;;;5.15;;
24435;SDS011;12616;52.470;13.436;2023-02-01T08:16:36;10.60;;;4.32;;
24435;SDS011;12616;52.470;13.436;2023-02-01T08:19:04;12.32;;;5.95;;
24435;SDS011;12616;52.470;13.436;2023-02-01T08:21:31;12.77;;;4.70;;
24435;SDS011;12616;52.470;13.436;2023-02-01T08:24:03;11.30;;;3.85;;
24435;SDS011;12616;52.470;13.436;2023-02-01T08:26:32;8.23;;;5.10;;
24435;SDS011;12616;52.470;13.436;2023-02-01T08:29:00;9.27;;;4.93;;
24435;SDS011;12616;52.470;13.436;2023-02-01T08:31:29;10.18;;;5.13;;
24435;SDS011;12616;52.470;13.436;2023-02-01T08:33:57;8.70;;;4.13;;
24435;SDS011;12616;52.470;13.436;2023-02-01T08:36:26;8.60;;;4.20;;
24435;SDS011;12616;52.470;13.436;2023-02-01T08:38:54;10.95;;;4.40;;
24435;SDS011;12616;52.470;13.436;2023-02-01T08:41:22;9.63;;;4.68;;
24435;SDS011;12616;52.470;13.436;2023-02-01T08:43:52;6.55;;;4.90;;
24435;SDS011;12616;52.470;13.436;2023-02-01T08:46:19;11.30;;;5.30;;
24435;SDS011;12616;52.470;13.436;2023-02-01T08:48:46;11.77;;;4.88;;
24435;SDS011;12616;52.470;13.436;2023-02-01T08:51:14;10.30;;;4.40;;
24435;SDS011;12616;52.470;13.436;2023-02-01T08:53:43;13.95;;;4.80;;
24435;SDS011;12616;52.470;13.436;2023-02-01T08:56:11;15.05;;;4.32;;
24435;SDS011;12616;52.470;13.436;2023-02-01T08:58:39;11.02;;;4.38;;
24435;SDS011;12616;52.470;13.436;2023-02-01T09:01:11;9.48;;;4.10;;
24435;SDS011;12616;52.470;13.436;2023-02-01T09:03:39;9.27;;;3.67;;
24435;SDS011;12616;52.470;13.436;2023-02-01T09:06:07;4.90;;;3.22;;
24435;SDS011;12616;52.470;13.436;2023-02-01T09:08:36;5.10;;;2.90;;
24435;SDS011;12616;52.470;13.436;2023-02-01T09:11:04;3.08;;;2.17;;
24435;SDS011;12616;52.470;13.436;2023-02-01T09:13:34;6.55;;;3.30;;
24435;SDS011;12616;52.470;13.436;2023-02-01T09:16:01;4.65;;;3.22;;
24435;SDS011;12616;52.470;13.436;2023-02-01T09:18:29;5.50;;;2.55;;
24435;SDS011;12616;52.470;13.436;2023-02-01T09:20:56;6.38;;;2.60;;
24435;SDS011;12616;52.470;13.436;2023-02-01T09:23:23;3.95;;;2.00;;
24435;SDS011;12616;52.470;13.436;2023-02-01T09:25:50;7.72;;;3.20;;
24435;SDS011;12616;52.470;13.436;2023-02-01T09:28:17;9.30;;;3.53;;
24435;SDS011;12616;52.470;13.436;2023-02-01T09:30:45;5.50;;;3.10;;
24435;SDS011;12616;52.470;13.436;2023-02-01T09:33:12;3.03;;;2.83;;
24435;SDS011;12616;52.470;13.436;2023-02-01T09:35:40;4.10;;;2.25;;
24435;SDS011;12616;52.470;13.436;2023-02-01T09:38:07;6.22;;;2.35;;
24435;SDS011;12616;52.470;13.436;2023-02-01T09:40:34;3.75;;;2.38;;
24435;SDS011;12616;52.470;13.436;2023-02-01T09:43:10;1.98;;;1.70;;
24435;SDS011;12616;52.470;13.436;2023-02-01T09:45:49;4.85;;;1.85;;
24435;SDS011;12616;52.470;13.436;2023-02-01T09:48:22;1.75;;;1.52;;
24435;SDS011;12616;52.470;13.436;2023-02-01T09:50:56;2.88;;;2.38;;
24435;SDS011;12616;52.470;13.436;2023-02-01T09:53:25;4.00;;;1.45;;
24435;SDS011;12616;52.470;13.436;2023-02-01T09:55:57;2.10;;;1.75;;
24435;SDS011;12616;52.470;13.436;2023-02-01T09:58:30;3.78;;;2.20;;
24435;SDS011;12616;52.470;13.436;2023-02-01T10:01:04;3.80;;;1.80;;
24435;SDS011;12616;52.470;13.436;2023-02-01T10:03:40;3.35;;;2.20;;
24435;SDS011;12616;52.470;13.436;2023-02-01T10:06:16;7.97;;;2.65;;
24435;SDS011;12616;52.470;13.436;2023-02-01T10:09:02;2.30;;;1.67;;
24435;SDS011;12616;52.470;13.436;2023-02-01T10:11:42;8.38;;;3.00;;
24435;SDS011;12616;52.470;13.436;2023-02-01T10:14:18;2.92;;;2.10;;
24435;SDS011;12616;52.470;13.436;2023-02-01T10:16:57;1.98;;;1.52;;
24435;SDS011;12616;52.470;13.436;2023-02-01T10:19:36;2.28;;;1.83;;
24435;SDS011;12616;52.470;13.436;2023-02-01T10:22:10;4.80;;;2.45;;
24435;SDS011;12616;52.470;13.436;2023-02-01T10:24:47;4.30;;;1.92;;
24435;SDS011;12616;52.470;13.436;2023-02-01T10:27:22;3.85;;;1.60;;
24435;SDS011;12616;52.470;13.436;2023-02-01T10:29:54;5.80;;;1.77;;
24435;SDS011;12616;52.470;13.436;2023-02-01T10:32:27;4.30;;;2.08;;
24435;SDS011;12616;52.470;13.436;2023-02-01T10:34:58;2.72;;;2.10;;
24435;SDS011;12616;52.470;13.436;2023-02-01T10:37:28;5.30;;;1.98;;
24435;SDS011;12616;52.470;13.436;2023-02-01T10:39:57;8.35;;;3.42;;
24435;SDS011;12616;52.470;13.436;2023-02-01T10:42:28;4.13;;;2.25;;
24435;SDS011;12616;52.470;13.436;2023-02-01T10:44:57;5.82;;;2.50;;
24435;SDS011;12616;52.470;13.436;2023-02-01T10:47:27;6.78;;;2.50;;
24435;SDS011;12616;52.470;13.436;2023-02-01T10:49:55;2.85;;;2.13;;
24435;SDS011;12616;52.470;13.436;2023-02-01T10:52:33;12.80;;;2.33;;
24435;SDS011;12616;52.470;13.436;2023-02-01T10:57:56;3.38;;;2.30;;
24435;SDS011;12616;52.470;13.436;2023-02-01T11:00:24;5.90;;;2.80;;
24435;SDS011;12616;52.470;13.436;2023-02-01T11:02:51;2.50;;;2.30;;
24435;SDS011;12616;52.470;13.436;2023-02-01T11:05:19;4.93;;;2.88;;
24435;SDS011;12616;52.470;13.436;2023-02-01T11:07:50;5.28;;;2.40;;
24435;SDS011;12616;52.470;13.436;2023-02-01T11:10:36;2.35;;;2.13;;
24435;SDS011;12616;52.470;13.436;2023-02-01T11:13:07;3.20;;;2.90;;
24435;SDS011;12616;52.470;13.436;2023-02-01T11:15:42;6.45;;;2.22;;
24435;SDS011;12616;52.470;13.436;2023-02-01T11:18:14;6.80;;;2.65;;
24435;SDS011;12616;52.470;13.436;2023-02-01T11:20:43;3.67;;;2.45;;
24435;SDS011;12616;52.470;13.436;2023-02-01T11:23:16;6.10;;;2.90;;
24435;SDS011;12616;52.470;13.436;2023-02-01T11:25:48;4.00;;;2.85;;
24435;SDS011;12616;52.470;13.436;2023-02-01T11:28:18;8.15;;;3.72;;
24435;SDS011;12616;52.470;13.436;2023-02-01T11:30:47;7.47;;;4.50;;
24435;SDS011;12616;52.470;13.436;2023-02-01T11:33:15;6.15;;;3.20;;
24435;SDS011;12616;52.470;13.436;2023-02-01T11:35:44;5.57;;;2.63;;
24435;SDS011;12616;52.470;13.436;2023-02-01T11:38:21;14.48;;;3.40;;
24435;SDS011;12616;52.470;13.436;2023-02-01T11:40:52;5.35;;;3.00;;
24435;SDS011;12616;52.470;13.436;2023-02-01T11:43:22;4.82;;;2.45;;
24435;SDS011;12616;52.470;13.436;2023-02-01T11:45:54;5.25;;;2.33;;
24435;SDS011;12616;52.470;13.436;2023-02-01T11:48:23;4.38;;;2.58;;
24435;SDS011;12616;52.470;13.436;2023-02-01T11:50:52;7.53;;;3.60;;
24435;SDS011;12616;52.470;13.436;2023-02-01T11:53:38;7.50;;;3.17;;
24435;SDS011;12616;52.470;13.436;2023-02-01T11:56:19;3.88;;;2.72;;
24435;SDS011;12616;52.470;13.436;2023-02-01T11:58:58;7.32;;;2.50;;
24435;SDS011;12616;52.470;13.436;2023-02-01T12:07:45;5.45;;;3.15;;
24435;SDS011;12616;52.470;13.436;2023-02-01T12:10:25;6.55;;;2.22;;
24435;SDS011;12616;52.470;13.436;2023-02-01T12:13:02;8.15;;;3.17;;
24435;SDS011;12616;52.470;13.436;2023-02-01T12:15:46;11.35;;;2.80;;
24435;SDS011;12616;52.470;13.436;2023-02-01T12:21:19;5.28;;;2.88;;
24435;SDS011;12616;52.470;13.436;2023-02-01T12:26:56;6.55;;;2.78;;
24435;SDS011;12616;52.470;13.436;2023-02-01T12:29:44;2.72;;;2.50;;
24435;SDS011;12616;52.470;13.436;2023-02-01T12:32:30;3.40;;;2.70;;
24435;SDS011;12616;52.470;13.436;2023-02-01T12:35:17;7.68;;;2.60;;
24435;SDS011;12616;52.470;13.436;2023-02-01T12:38:04;9.85;;;2.95;;
24435;SDS011;12616;52.470;13.436;2023-02-01T12:40:49;4.50;;;2.38;;
24435;SDS011;12616;52.470;13.436;2023-02-01T12:43:33;8.48;;;3.03;;
24435;SDS011;12616;52.470;13.436;2023-02-01T12:46:06;6.47;;;2.60;;
24435;SDS011;12616;52.470;13.436;2023-02-01T12:48:36;11.25;;;3.10;;
24435;SDS011;12616;52.470;13.436;2023-02-01T12:51:09;8.20;;;2.53;;
24435;SDS011;12616;52.470;13.436;2023-02-01T12:53:43;7.88;;;3.78;;
24435;SDS011;12616;52.470;13.436;2023-02-01T12:56:15;9.35;;;3.05;;
24435;SDS011;12616;52.470;13.436;2023-02-01T12:58:49;6.10;;;2.53;;
24435;SDS011;12616;52.470;13.436;2023-02-01T13:01:20;4.90;;;3.08;;
24435;SDS011;12616;52.470;13.436;2023-02-01T13:03:53;10.95;;;2.90;;
24435;SDS011;12616;52.470;13.436;2023-02-01T13:06:26;5.97;;;2.80;;
24435;SDS011;12616;52.470;13.436;2023-02-01T13:08:58;3.60;;;2.75;;
24435;SDS011;12616;52.470;13.436;2023-02-01T13:11:31;14.45;;;3.72;;
24435;SDS011;12616;52.470;13.436;2023-02-01T13:14:02;12.45;;;2.20;;
24435;SDS011;12616;52.470;13.436;2023-02-01T13:16:35;7.30;;;2.75;;
24435;SDS011;12616;52.470;13.436;2023-02-01T13:19:10;10.55;;;3.67;;
24435;SDS011;12616;52.470;13.436;2023-02-01T13:21:43;9.85;;;2.40;;
24435;SDS011;12616;52.470;13.436;2023-02-01T13:24:17;6.75;;;2.92;;
24435;SDS011;12616;52.470;13.436;2023-02-01T13:26:53;5.00;;;2.70;;
24435;SDS011;12616;52.470;13.436;2023-02-01T13:29:25;2.38;;;2.17;;
24435;SDS011;12616;52.470;13.436;2023-02-01T13:38:04;2.80;;;2.10;;
24435;SDS011;12616;52.470;13.436;2023-02-01T13:40:52;8.60;;;2.22;;
24435;SDS011;12616;52.470;13.436;2023-02-01T13:43:30;10.63;;;2.72;;
24435;SDS011;12616;52.470;13.436;2023-02-01T13:46:05;15.38;;;2.92;;
24435;SDS011;12616;52.470;13.436;2023-02-01T13:48:35;5.97;;;2.60;;
24435;SDS011;12616;52.470;13.436;2023-02-01T13:51:06;5.68;;;2.10;;
24435;SDS011;12616;52.470;13.436;2023-02-01T13:53:34;5.47;;;2.40;;
24435;SDS011;12616;52.470;13.436;2023-02-01T13:56:03;3.17;;;2.30;;
24435;SDS011;12616;52.470;13.436;2023-02-01T13:58:34;15.13;;;3.70;;
24435;SDS011;12616;52.470;13.436;2023-02-01T14:07:23;17.67;;;4.75;;
24435;SDS011;12616;52.470;13.436;2023-02-01T14:09:50;7.53;;;3.15;;
24435;SDS011;12616;52.470;13.436;2023-02-01T14:15:20;7.25;;;2.90;;
24435;SDS011;12616;52.470;13.436;2023-02-01T14:17:51;13.13;;;4.28;;
24435;SDS011;12616;52.470;13.436;2023-02-01T14:23:25;9.88;;;2.90;;
24435;SDS011;12616;52.470;13.436;2023-02-01T14:32:07;8.30;;;4.43;;
24435;SDS011;12616;52.470;13.436;2023-02-01T14:34:48;7.07;;;3.47;;
24435;SDS011;12616;52.470;13.436;2023-02-01T14:37:23;7.90;;;2.50;;
24435;SDS011;12616;52.470;13.436;2023-02-01T14:39:56;6.18;;;3.38;;
24435;SDS011;12616;52.470;13.436;2023-02-01T14:42:28;7.07;;;3.80;;
24435;SDS011;12616;52.470;13.436;2023-02-01T14:51:11;6.68;;;3.78;;
24435;SDS011;12616;52.470;13.436;2023-02-01T14:53:42;5.85;;;2.60;;
24435;SDS011;12616;52.470;13.436;2023-02-01T14:56:13;7.47;;;4.25;;
24435;SDS011;12616;52.470;13.436;2023-02-01T14:58:47;11.02;;;4.00;;
24435;SDS011;12616;52.470;13.436;2023-02-01T15:01:21;11.57;;;3.45;;
24435;SDS011;12616;52.470;13.436;2023-02-01T15:03:51;7.13;;;3.22;;
24435;SDS011;12616;52.470;13.436;2023-02-01T15:06:24;9.48;;;4.35;;
24435;SDS011;12616;52.470;13.436;2023-02-01T15:08:54;6.88;;;2.90;;
24435;SDS011;12616;52.470;13.436;2023-02-01T15:11:25;4.90;;;1.90;;
24435;SDS011;12616;52.470;13.436;2023-02-01T15:13:52;3.40;;;1.95;;
24435;SDS011;12616;52.470;13.436;2023-02-01T15:16:25;2.95;;;1.42;;
24435;SDS011;12616;52.470;13.436;2023-02-01T15:19:06;3.75;;;1.83;;
24435;SDS011;12616;52.470;13.436;2023-02-01T15:21:42;3.47;;;1.83;;
24435;SDS011;12616;52.470;13.436;2023-02-01T15:24:11;6.88;;;2.10;;
24435;SDS011;12616;52.470;13.436;2023-02-01T15:26:40;3.35;;;2.33;;
24435;SDS011;12616;52.470;13.436;2023-02-01T15:29:10;6.72;;;2.40;;
24435;SDS011;12616;52.470;13.436;2023-02-01T15:31:39;3.08;;;2.63;;
24435;SDS011;12616;52.470;13.436;2023-02-01T15:34:09;4.50;;;2.60;;
24435;SDS011;12616;52.470;13.436;2023-02-01T15:36:36;4.32;;;2.50;;
24435;SDS011;12616;52.470;13.436;2023-02-01T15:39:14;7.47;;;3.25;;
24435;SDS011;12616;52.470;13.436;2023-02-01T15:41:50;4.72;;;2.83;;
24435;SDS011;12616;52.470;13.436;2023-02-01T15:44:21;5.13;;;3.13;;
24435;SDS011;12616;52.470;13.436;2023-02-01T15:46:56;3.38;;;2.20;;
24435;SDS011;12616;52.470;13.436;2023-02-01T15:49:25;10.32;;;2.38;;
24435;SDS011;12616;52.470;13.436;2023-02-01T15:51:54;4.40;;;2.05;;
24435;SDS011;12616;52.470;13.436;2023-02-01T15:54:24;3.95;;;1.52;;